Time;durP1;ratioP1;P1;durP2;ratioP2;P2;SDS_P1;SDS_P2;PMS_P1;PMS_P2;Temp;Humidity;BMP_temperature;BMP_pressure;BME280_temperature;BME280_humidity;BME280_pressure;Samples;Min_cycle;Max_cycle;Signal;HPM_P1;HPM_P2
2023/04/27 00:00:35;;;;;;;;;10.25;10.00;;;;;;;;5041240;28;9698;-85
2023/04/27 00:03:06;;;;;;;;;13.25;8.50;;;;;;;;5049759;28;10059;-85
2023/04/27 00:05:37;;;;;;;;;9.00;8.25;;;;;;;;5050676;28;9793;-85
2023/04/27 00:08:05;;;;;;;;;9.00;9.00;;;;;;;;5050819;28;10105;-85
2023/04/27 00:10:32;;;;;;;;;10.00;8.50;;;;;;;;5051547;28;10042;-84
2023/04/27 00:13:00;;;;;;;;;9.00;7.75;;;;;;;;5051660;28;9942;-85
2023/04/27 00:15:27;;;;;;;;;9.00;9.00;;;;;;;;5054052;28;10193;-84
2023/04/27 00:17:56;;;;;;;;;14.50;14.50;;;;;;;;5054390;28;10157;-86
2023/04/27 00:20:23;;;;;;;;;14.50;14.00;;;;;;;;5055124;28;10257;-83
2023/04/27 00:22:52;;;;;;;;;13.75;13.75;;;;;;;;5057873;28;10364;-85
2023/04/27 00:25:20;;;;;;;;;15.25;13.25;;;;;;;;5056222;28;10351;-83
2023/04/27 00:27:47;;;;;;;;;11.75;11.75;;;;;;;;5065617;28;10378;-81
2023/04/27 00:30:15;;;;;;;;;20.25;16.00;;;;;;;;5068787;28;10481;-84
2023/04/27 00:32:42;;;;;;;;;18.00;16.50;;;;;;;;5060226;28;10249;-87
2023/04/27 00:35:10;;;;;;;;;13.75;11.75;;;;;;;;5062621;28;10378;-82
2023/04/27 00:37:37;;;;;;;;;14.75;13.00;;;;;;;;5062486;28;10400;-84
2023/04/27 00:40:07;;;;;;;;;7.50;6.75;;;;;;;;5062007;28;10517;-82
2023/04/27 00:42:35;;;;;;;;;15.00;13.00;;;;;;;;5067070;28;10395;-82
2023/04/27 00:45:04;;;;;;;;;17.00;15.25;;;;;;;;5055060;28;10350;-81
2023/04/27 00:47:31;;;;;;;;;11.00;11.00;;;;;;;;5051089;28;10507;-84
2023/04/27 00:50:02;;;;;;;;;15.50;14.75;;;;;;;;5062565;28;10416;-84
2023/04/27 00:52:30;;;;;;;;;13.75;11.00;;;;;;;;5048472;28;10261;-85
2023/04/27 00:54:58;;;;;;;;;16.50;14.50;;;;;;;;5065537;28;10355;-84
2023/04/27 00:57:27;;;;;;;;;14.00;13.00;;;;;;;;5044824;28;10343;-84
2023/04/27 00:59:54;;;;;;;;;14.25;13.00;;;;;;;;5062097;28;10346;-80
2023/04/27 01:02:21;;;;;;;;;13.00;12.75;;;;;;;;5056134;28;10312;-84
2023/04/27 01:04:50;;;;;;;;;14.00;12.75;;;;;;;;5061793;28;10366;-84
2023/04/27 01:07:18;;;;;;;;;16.25;15.75;;;;;;;;5059619;28;10434;-82
2023/04/27 01:09:45;;;;;;;;;13.25;13.25;;;;;;;;5059545;28;10444;-84
2023/04/27 01:12:13;;;;;;;;;16.75;16.75;;;;;;;;5051268;28;10418;-80
2023/04/27 01:14:41;;;;;;;;;18.25;16.50;;;;;;;;5059378;28;10423;-83
2023/04/27 01:17:08;;;;;;;;;14.00;14.00;;;;;;;;5059343;28;10556;-82
2023/04/27 01:19:36;;;;;;;;;15.00;13.75;;;;;;;;5051857;28;10528;-86
2023/04/27 01:22:03;;;;;;;;;14.50;12.75;;;;;;;;5051236;28;11245;-79
2023/04/27 01:24:31;;;;;;;;;20.00;17.75;;;;;;;;5051005;28;10629;-83
2023/04/27 01:26:59;;;;;;;;;19.75;16.25;;;;;;;;5050809;28;10867;-84
2023/04/27 01:29:27;;;;;;;;;16.25;15.00;;;;;;;;5051506;28;10796;-82
2023/04/27 01:31:55;;;;;;;;;14.00;14.00;;;;;;;;5050681;28;10487;-83
2023/04/27 01:34:22;;;;;;;;;16.50;16.25;;;;;;;;5051650;28;10433;-85
2023/04/27 01:36:49;;;;;;;;;20.00;16.75;;;;;;;;5052539;28;10480;-83
2023/04/27 01:39:16;;;;;;;;;17.25;14.00;;;;;;;;5063763;28;10440;-85
2023/04/27 01:41:45;;;;;;;;;6.25;5.50;;;;;;;;5050966;28;10340;-84
2023/04/27 01:44:12;;;;;;;;;17.00;16.75;;;;;;;;5059080;28;10305;-81
2023/04/27 01:46:39;;;;;;;;;17.00;15.00;;;;;;;;5068706;28;10585;-84
2023/04/27 01:49:07;;;;;;;;;14.75;14.75;;;;;;;;5051194;28;10574;-83
2023/04/27 01:51:34;;;;;;;;;15.00;13.00;;;;;;;;5050294;28;10493;-83
2023/04/27 01:54:02;;;;;;;;;12.00;12.00;;;;;;;;5052143;28;10422;-84
2023/04/27 01:56:29;;;;;;;;;12.50;10.75;;;;;;;;5051749;28;11551;-81
2023/04/27 01:59:01;;;;;;;;;18.75;16.00;;;;;;;;5053078;28;10518;-85
2023/04/27 02:01:31;;;;;;;;;14.75;14.75;;;;;;;;5051362;28;10584;-86
2023/04/27 02:04:00;;;;;;;;;12.00;10.00;;;;;;;;5052760;28;10677;-86
2023/04/27 02:06:28;;;;;;;;;15.75;13.00;;;;;;;;5052820;28;10510;-86
2023/04/27 02:08:55;;;;;;;;;13.25;13.00;;;;;;;;5052898;28;10428;-83
2023/04/27 02:11:22;;;;;;;;;17.00;15.00;;;;;;;;5052086;28;10565;-83
2023/04/27 02:13:49;;;;;;;;;10.00;10.00;;;;;;;;5051513;28;10629;-84
2023/04/27 02:16:18;;;;;;;;;15.25;13.50;;;;;;;;5057933;28;10499;-82
2023/04/27 02:18:45;;;;;;;;;15.50;15.50;;;;;;;;5058864;28;10514;-84
2023/04/27 02:21:13;;;;;;;;;14.50;13.25;;;;;;;;5056652;28;10655;-86
2023/04/27 02:23:40;;;;;;;;;17.00;12.75;;;;;;;;5050069;28;10559;-81
2023/04/27 02:26:07;;;;;;;;;12.50;12.50;;;;;;;;5056434;28;10748;-82
2023/04/27 02:28:34;;;;;;;;;15.00;15.00;;;;;;;;5062101;28;10486;-83
2023/04/27 02:31:02;;;;;;;;;13.00;13.00;;;;;;;;5055366;28;10558;-83
2023/04/27 02:33:34;;;;;;;;;14.25;14.25;;;;;;;;5055570;28;10578;-84
2023/04/27 02:36:01;;;;;;;;;11.00;11.00;;;;;;;;5049974;28;10779;-83
2023/04/27 02:38:30;;;;;;;;;14.25;12.75;;;;;;;;5061093;28;10564;-82
2023/04/27 02:40:57;;;;;;;;;14.50;14.50;;;;;;;;5057119;28;10601;-81
2023/04/27 02:43:24;;;;;;;;;13.00;11.75;;;;;;;;5051689;28;10596;-85
2023/04/27 02:45:52;;;;;;;;;20.00;14.50;;;;;;;;5047669;28;10515;-83
2023/04/27 02:48:19;;;;;;;;;10.50;10.50;;;;;;;;5061354;28;10719;-83
2023/04/27 02:50:47;;;;;;;;;15.00;12.25;;;;;;;;5050994;28;10577;-81
2023/04/27 02:53:15;;;;;;;;;18.75;16.00;;;;;;;;5050066;28;10788;-85
2023/04/27 02:55:47;;;;;;;;;12.50;12.25;;;;;;;;5051065;28;10762;-85
2023/04/27 02:58:14;;;;;;;;;13.00;13.00;;;;;;;;5050208;28;10641;-81
2023/04/27 03:00:41;;;;;;;;;13.25;13.25;;;;;;;;5049774;28;10601;-85
2023/04/27 03:03:09;;;;;;;;;14.75;13.00;;;;;;;;5049664;28;10658;-82
2023/04/27 03:05:37;;;;;;;;;16.25;15.50;;;;;;;;5049224;28;11365;-84
2023/04/27 03:08:05;;;;;;;;;12.50;12.50;;;;;;;;5049826;28;10688;-85
2023/04/27 03:10:33;;;;;;;;;13.00;13.00;;;;;;;;5037964;28;10822;-86
2023/04/27 03:13:00;;;;;;;;;17.50;15.50;;;;;;;;5049885;28;10695;-82
2023/04/27 03:15:27;;;;;;;;;15.25;13.75;;;;;;;;5050476;28;10615;-81
2023/04/27 03:17:54;;;;;;;;;14.50;14.00;;;;;;;;5063314;28;10663;-84
2023/04/27 03:20:22;;;;;;;;;12.75;12.75;;;;;;;;5038535;28;10636;-84
2023/04/27 03:22:49;;;;;;;;;10.50;10.50;;;;;;;;5047999;28;10497;-82
2023/04/27 03:25:18;;;;;;;;;14.25;13.75;;;;;;;;5049162;28;10598;-84
2023/04/27 03:27:45;;;;;;;;;15.75;11.50;;;;;;;;5049279;28;10644;-85
2023/04/27 03:30:13;;;;;;;;;14.00;13.50;;;;;;;;5048796;28;10592;-86
2023/04/27 03:32:40;;;;;;;;;14.00;14.00;;;;;;;;5048928;28;10562;-84
2023/04/27 03:35:09;;;;;;;;;16.50;14.75;;;;;;;;5050014;28;10632;-84
2023/04/27 03:37:36;;;;;;;;;12.75;11.75;;;;;;;;5049177;28;10673;-86
2023/04/27 03:40:06;;;;;;;;;14.25;12.75;;;;;;;;5049598;28;10590;-86
2023/04/27 03:42:34;;;;;;;;;14.50;14.00;;;;;;;;5049696;28;10589;-84
2023/04/27 03:45:05;;;;;;;;;10.00;10.00;;;;;;;;5049979;28;10436;-82
2023/04/27 03:47:32;;;;;;;;;12.50;11.00;;;;;;;;5049609;28;10522;-84
2023/04/27 03:50:02;;;;;;;;;14.50;12.75;;;;;;;;5049777;28;10330;-84
2023/04/27 03:52:32;;;;;;;;;11.25;11.25;;;;;;;;5049821;28;10507;-86
2023/04/27 03:55:03;;;;;;;;;13.50;11.75;;;;;;;;5050418;28;10473;-86
2023/04/27 03:57:30;;;;;;;;;14.25;13.25;;;;;;;;5050929;28;10525;-85
2023/04/27 03:59:59;;;;;;;;;11.75;11.75;;;;;;;;5049947;28;10488;-85
2023/04/27 04:02:26;;;;;;;;;10.75;10.75;;;;;;;;5050579;28;10367;-85
2023/04/27 04:04:53;;;;;;;;;11.25;11.25;;;;;;;;5051879;28;10262;-84
2023/04/27 04:07:20;;;;;;;;;12.50;10.75;;;;;;;;5056931;28;10493;-84
2023/04/27 04:09:48;;;;;;;;;13.00;13.00;;;;;;;;5051565;28;10344;-85
2023/04/27 04:12:15;;;;;;;;;13.00;12.00;;;;;;;;5054341;28;10366;-83
2023/04/27 04:14:42;;;;;;;;;12.75;11.00;;;;;;;;5058597;28;10419;-85
2023/04/27 04:17:11;;;;;;;;;11.00;11.00;;;;;;;;5051962;28;11137;-82
2023/04/27 04:19:38;;;;;;;;;10.75;10.75;;;;;;;;5054867;28;10525;-85
2023/04/27 04:22:05;;;;;;;;;14.25;12.75;;;;;;;;5054449;28;10572;-85
2023/04/27 04:24:33;;;;;;;;;13.25;13.25;;;;;;;;5050473;28;10524;-86
2023/04/27 04:27:01;;;;;;;;;11.25;11.25;;;;;;;;5048304;28;10379;-85
2023/04/27 04:29:31;;;;;;;;;14.50;13.25;;;;;;;;5043363;28;11345;-83
2023/04/27 04:31:59;;;;;;;;;16.00;14.50;;;;;;;;5046109;28;10490;-83
2023/04/27 04:34:28;;;;;;;;;13.25;12.00;;;;;;;;5048614;28;10532;-83
2023/04/27 04:36:56;;;;;;;;;15.00;11.50;;;;;;;;5040548;28;10647;-83
2023/04/27 04:39:23;;;;;;;;;7.25;7.25;;;;;;;;5048285;28;10499;-83
2023/04/27 04:41:51;;;;;;;;;13.75;12.00;;;;;;;;5047659;28;10582;-82
2023/04/27 04:44:19;;;;;;;;;10.00;10.00;;;;;;;;5041080;28;10572;-84
2023/04/27 04:46:47;;;;;;;;;12.50;12.00;;;;;;;;5049063;28;10338;-80
2023/04/27 04:49:14;;;;;;;;;10.75;10.75;;;;;;;;5048183;28;10439;-81
2023/04/27 04:51:44;;;;;;;;;12.00;12.00;;;;;;;;5046811;28;10407;-80
2023/04/27 04:54:12;;;;;;;;;12.00;12.00;;;;;;;;5048113;28;10284;-83
2023/04/27 04:56:39;;;;;;;;;10.00;10.00;;;;;;;;5048140;28;10389;-84
2023/04/27 04:59:06;;;;;;;;;10.25;10.25;;;;;;;;5047169;28;10203;-83
2023/04/27 05:01:35;;;;;;;;;15.50;9.50;;;;;;;;5044246;28;10235;-85
2023/04/27 05:04:02;;;;;;;;;11.00;11.00;;;;;;;;5051325;28;10333;-86
2023/04/27 05:06:32;;;;;;;;;15.50;13.25;;;;;;;;5064278;28;10272;-86
2023/04/27 05:09:05;;;;;;;;;12.75;12.75;;;;;;;;5069165;28;10381;-82
2023/04/27 05:11:35;;;;;;;;;12.50;10.75;;;;;;;;5066762;28;10258;-82
2023/04/27 05:14:02;;;;;;;;;14.00;12.25;;;;;;;;5068090;28;10181;-83
2023/04/27 05:16:29;;;;;;;;;13.75;12.00;;;;;;;;5067434;28;10458;-85
2023/04/27 05:18:56;;;;;;;;;12.75;12.75;;;;;;;;5058550;28;10286;-85
2023/04/27 05:21:24;;;;;;;;;12.00;10.25;;;;;;;;5050767;28;10272;-84
2023/04/27 05:23:51;;;;;;;;;15.75;12.75;;;;;;;;5051073;28;10432;-84
2023/04/27 05:26:20;;;;;;;;;13.25;13.25;;;;;;;;5050920;28;10380;-85
2023/04/27 05:28:48;;;;;;;;;13.00;13.00;;;;;;;;5051467;28;10217;-85
2023/04/27 05:31:15;;;;;;;;;13.00;11.75;;;;;;;;5050884;28;10155;-85
2023/04/27 05:33:42;;;;;;;;;11.50;9.00;;;;;;;;5051602;28;10380;-83
2023/04/27 05:36:10;;;;;;;;;13.00;10.00;;;;;;;;5050329;28;10186;-81
2023/04/27 05:38:39;;;;;;;;;11.50;10.50;;;;;;;;5051317;28;10116;-84
2023/04/27 05:41:06;;;;;;;;;17.00;14.00;;;;;;;;5053542;28;10097;-82
2023/04/27 05:43:37;;;;;;;;;14.50;13.25;;;;;;;;5061275;28;10468;-79
2023/04/27 05:46:04;;;;;;;;;13.50;12.25;;;;;;;;5065692;28;11033;-81
2023/04/27 05:48:32;;;;;;;;;9.50;9.50;;;;;;;;5055719;28;10326;-81
2023/04/27 05:51:03;;;;;;;;;13.00;13.00;;;;;;;;5052121;28;10110;-82
2023/04/27 05:53:30;;;;;;;;;16.00;13.25;;;;;;;;5055895;28;10104;-82
2023/04/27 05:55:59;;;;;;;;;13.50;13.50;;;;;;;;5050953;28;10109;-82
2023/04/27 05:58:27;;;;;;;;;15.25;13.00;;;;;;;;5050488;28;10139;-80
2023/04/27 06:00:56;;;;;;;;;10.00;10.00;;;;;;;;5060355;28;10233;-80
2023/04/27 06:03:23;;;;;;;;;14.00;14.00;;;;;;;;5062074;28;11102;-79
2023/04/27 06:05:54;;;;;;;;;12.25;12.25;;;;;;;;5056342;28;10146;-79
2023/04/27 06:08:22;;;;;;;;;14.25;12.75;;;;;;;;5056249;28;10274;-80
2023/04/27 06:10:50;;;;;;;;;12.50;12.50;;;;;;;;5053535;28;10165;-78
2023/04/27 06:13:17;;;;;;;;;12.50;11.00;;;;;;;;5050365;28;10093;-81
2023/04/27 06:15:45;;;;;;;;;17.25;16.50;;;;;;;;5049055;28;10050;-77
2023/04/27 06:18:13;;;;;;;;;14.25;13.25;;;;;;;;5043875;28;10385;-78
2023/04/27 06:20:41;;;;;;;;;12.50;10.50;;;;;;;;5047686;28;10339;-77
2023/04/27 06:23:08;;;;;;;;;13.75;13.75;;;;;;;;5048980;28;10172;-75
2023/04/27 06:25:37;;;;;;;;;11.00;11.00;;;;;;;;5060880;28;10205;-76
2023/04/27 06:28:05;;;;;;;;;10.00;10.00;;;;;;;;5049256;28;10286;-78
2023/04/27 06:30:32;;;;;;;;;12.50;12.50;;;;;;;;5061294;28;10099;-76
2023/04/27 06:32:59;;;;;;;;;10.50;10.50;;;;;;;;5049207;28;10176;-77
2023/04/27 06:35:28;;;;;;;;;15.25;11.00;;;;;;;;5048928;28;10094;-75
2023/04/27 06:37:57;;;;;;;;;13.50;12.00;;;;;;;;5048972;28;10060;-75
2023/04/27 06:40:25;;;;;;;;;15.00;12.50;;;;;;;;5048688;28;9979;-77
2023/04/27 06:42:53;;;;;;;;;10.00;10.00;;;;;;;;5049000;28;10046;-75
2023/04/27 06:45:20;;;;;;;;;10.75;10.75;;;;;;;;5048677;28;9867;-80
2023/04/27 06:47:47;;;;;;;;;14.00;12.00;;;;;;;;5050986;28;9863;-80
2023/04/27 06:50:16;;;;;;;;;13.25;12.00;;;;;;;;5050284;28;9942;-77
2023/04/27 06:52:44;;;;;;;;;11.50;11.50;;;;;;;;5048559;28;10550;-81
2023/04/27 06:55:11;;;;;;;;;10.25;10.25;;;;;;;;5049127;28;9869;-75
2023/04/27 06:57:39;;;;;;;;;9.75;7.25;;;;;;;;5048527;28;9770;-80
2023/04/27 07:00:07;;;;;;;;;12.00;11.75;;;;;;;;5048251;28;9793;-78
2023/04/27 07:02:35;;;;;;;;;12.75;11.00;;;;;;;;5049422;28;9794;-76
2023/04/27 07:05:02;;;;;;;;;10.50;9.75;;;;;;;;5044352;28;9687;-75
2023/04/27 07:07:29;;;;;;;;;14.00;10.00;;;;;;;;5040336;28;9768;-76
2023/04/27 07:09:58;;;;;;;;;11.00;9.00;;;;;;;;5047752;28;9589;-76
2023/04/27 07:12:25;;;;;;;;;14.50;12.00;;;;;;;;5048433;28;9891;-76
2023/04/27 07:14:53;;;;;;;;;9.50;9.50;;;;;;;;5048267;28;9503;-75
2023/04/27 07:17:20;;;;;;;;;14.00;14.00;;;;;;;;5049096;28;9555;-76
2023/04/27 07:19:47;;;;;;;;;9.25;9.00;;;;;;;;5047859;28;9549;-77
2023/04/27 07:22:15;;;;;;;;;8.25;7.25;;;;;;;;5048399;28;9562;-78
2023/04/27 07:24:42;;;;;;;;;8.67;8.67;;;;;;;;5054003;28;9454;-76
2023/04/27 07:27:10;;;;;;;;;7.33;7.00;;;;;;;;5054496;28;9393;-79
2023/04/27 07:29:38;;;;;;;;;13.00;10.67;;;;;;;;5036337;28;9317;-80
2023/04/27 07:32:06;;;;;;;;;10.00;7.67;;;;;;;;5048672;28;9282;-77
2023/04/27 07:34:34;;;;;;;;;11.33;10.67;;;;;;;;5049131;28;9181;-78
2023/04/27 07:37:02;;;;;;;;;8.00;8.00;;;;;;;;5049104;28;10141;-77
2023/04/27 07:39:29;;;;;;;;;9.00;9.00;;;;;;;;5068681;28;9221;-77
2023/04/27 07:41:58;;;;;;;;;8.00;7.00;;;;;;;;5067299;28;9018;-80
2023/04/27 07:44:27;;;;;;;;;9.00;9.00;;;;;;;;5069651;28;9131;-79
2023/04/27 07:46:58;;;;;;;;;7.00;7.00;;;;;;;;5053725;28;9021;-82
2023/04/27 07:49:27;;;;;;;;;11.00;9.67;;;;;;;;5054189;28;9114;-77
2023/04/27 07:51:54;;;;;;;;;12.00;9.00;;;;;;;;5051285;28;9067;-77
2023/04/27 07:54:21;;;;;;;;;9.00;9.00;;;;;;;;5045662;28;9129;-76
2023/04/27 07:56:48;;;;;;;;;9.00;9.00;;;;;;;;5063075;28;9126;-77
2023/04/27 07:59:15;;;;;;;;;7.25;6.00;;;;;;;;5047450;28;9031;-77
2023/04/27 08:01:44;;;;;;;;;8.50;8.50;;;;;;;;5050688;28;8836;-78
2023/04/27 08:04:12;;;;;;;;;8.00;8.00;;;;;;;;5047001;28;8869;-76
2023/04/27 08:06:39;;;;;;;;;8.00;7.25;;;;;;;;5047330;28;8991;-79
2023/04/27 08:09:07;;;;;;;;;8.75;8.00;;;;;;;;5048531;28;8942;-76
2023/04/27 08:11:34;;;;;;;;;8.00;8.00;;;;;;;;5057585;28;8869;-76
2023/04/27 08:14:01;;;;;;;;;6.00;6.00;;;;;;;;5052563;28;8847;-82
2023/04/27 08:16:31;;;;;;;;;9.00;8.50;;;;;;;;5056731;28;8865;-77
2023/04/27 08:19:00;;;;;;;;;10.75;9.00;;;;;;;;5059502;28;8941;-79
2023/04/27 08:21:29;;;;;;;;;4.50;4.50;;;;;;;;5055459;28;8857;-77
2023/04/27 08:23:56;;;;;;;;;13.50;8.75;;;;;;;;5046237;28;8867;-75
2023/04/27 08:26:23;;;;;;;;;7.75;7.25;;;;;;;;5055407;28;8850;-73
2023/04/27 08:28:50;;;;;;;;;7.00;7.00;;;;;;;;5047242;28;8961;-73
2023/04/27 08:31:18;;;;;;;;;7.00;7.00;;;;;;;;5047224;28;8834;-74
2023/04/27 08:33:45;;;;;;;;;7.25;6.75;;;;;;;;5048572;28;8885;-74
2023/04/27 08:36:14;;;;;;;;;7.00;7.00;;;;;;;;5035660;28;8938;-74
2023/04/27 08:38:41;;;;;;;;;6.50;6.25;;;;;;;;5052990;28;8900;-76
2023/04/27 08:41:08;;;;;;;;;6.75;6.75;;;;;;;;5051727;28;8845;-74
2023/04/27 08:43:36;;;;;;;;;10.50;8.00;;;;;;;;5052896;28;8857;-79
2023/04/27 08:46:03;;;;;;;;;6.25;6.25;;;;;;;;5052266;28;8857;-77
2023/04/27 08:48:30;;;;;;;;;6.75;6.75;;;;;;;;5054805;28;8843;-78
2023/04/27 08:51:00;;;;;;;;;8.50;6.50;;;;;;;;5051776;28;9001;-79
2023/04/27 08:53:29;;;;;;;;;6.00;6.00;;;;;;;;5051893;28;8873;-79
2023/04/27 08:55:56;;;;;;;;;8.75;7.00;;;;;;;;5051390;28;8935;-77
2023/04/27 08:58:35;;;;;;;;;5.00;5.00;;;;;;;;5050713;28;8964;-77
2023/04/27 09:01:06;;;;;;;;;6.75;6.75;;;;;;;;5039766;28;8804;-75
2023/04/27 09:03:34;;;;;;;;;7.50;7.50;;;;;;;;5051420;28;8876;-75
2023/04/27 09:06:02;;;;;;;;;6.75;6.75;;;;;;;;5051068;28;8980;-77
2023/04/27 09:08:41;;;;;;;;;5.25;5.25;;;;;;;;5050141;28;8873;-78
2023/04/27 09:11:09;;;;;;;;;5.00;5.00;;;;;;;;5049827;28;8935;-79
2023/04/27 09:13:36;;;;;;;;;6.50;6.00;;;;;;;;5050950;28;8868;-78
2023/04/27 09:16:04;;;;;;;;;5.25;5.25;;;;;;;;5051168;28;8949;-80
2023/04/27 09:18:34;;;;;;;;;4.50;3.00;;;;;;;;5042274;28;8848;-78
2023/04/27 09:21:03;;;;;;;;;5.00;5.00;;;;;;;;5047251;28;8838;-80
2023/04/27 09:23:32;;;;;;;;;5.50;5.50;;;;;;;;5060185;28;8973;-80
2023/04/27 09:26:00;;;;;;;;;4.75;4.00;;;;;;;;5065109;28;8842;-78
2023/04/27 09:28:29;;;;;;;;;5.25;5.25;;;;;;;;5051868;28;8849;-79
2023/04/27 09:30:59;;;;;;;;;5.00;5.00;;;;;;;;5050638;28;8810;-79
2023/04/27 09:33:28;;;;;;;;;9.75;6.50;;;;;;;;5051738;28;8988;-80
2023/04/27 09:35:56;;;;;;;;;5.50;4.50;;;;;;;;5041268;28;8861;-79
2023/04/27 09:38:24;;;;;;;;;6.50;6.00;;;;;;;;5057852;28;8858;-79
2023/04/27 09:40:54;;;;;;;;;4.50;4.50;;;;;;;;5058705;28;9690;-75
2023/04/27 09:43:22;;;;;;;;;5.75;5.75;;;;;;;;5050475;28;8857;-75
2023/04/27 09:45:49;;;;;;;;;6.00;6.00;;;;;;;;5063356;28;9640;-75
2023/04/27 09:48:17;;;;;;;;;5.50;5.25;;;;;;;;5056721;28;8869;-75
2023/04/27 09:50:46;;;;;;;;;5.50;5.50;;;;;;;;5050346;28;8853;-74
2023/04/27 09:53:15;;;;;;;;;6.00;6.00;;;;;;;;5050729;28;8829;-75
2023/04/27 09:55:46;;;;;;;;;5.00;5.00;;;;;;;;5050730;28;8869;-75
2023/04/27 09:58:38;;;;;;;;;6.25;5.50;;;;;;;;5051772;28;8858;-75
2023/04/27 10:01:11;;;;;;;;;5.50;5.00;;;;;;;;5050346;28;8803;-75
2023/04/27 10:03:47;;;;;;;;;7.50;6.00;;;;;;;;5051825;28;8897;-75
2023/04/27 10:06:51;;;;;;;;;6.25;5.75;;;;;;;;5051656;28;8888;-77
2023/04/27 10:09:22;;;;;;;;;4.00;4.00;;;;;;;;5044433;28;8893;-76
2023/04/27 10:11:50;;;;;;;;;5.25;5.25;;;;;;;;5049543;28;9651;-78
2023/04/27 10:14:20;;;;;;;;;5.25;5.25;;;;;;;;5051352;28;8849;-80
2023/04/27 10:16:50;;;;;;;;;5.50;5.50;;;;;;;;5054308;28;8881;-74
2023/04/27 10:19:18;;;;;;;;;7.50;6.00;;;;;;;;5053108;28;8869;-73
2023/04/27 10:21:59;;;;;;;;;9.75;5.50;;;;;;;;5050316;28;8939;-73
2023/04/27 10:24:36;;;;;;;;;5.50;5.50;;;;;;;;5051711;28;9348;-73
2023/04/27 10:27:07;;;;;;;;;5.00;5.00;;;;;;;;5050512;28;8853;-73
2023/04/27 10:29:41;;;;;;;;;6.75;6.75;;;;;;;;5051123;28;8864;-77
2023/04/27 10:32:10;;;;;;;;;4.50;4.50;;;;;;;;5049519;28;8842;-73
2023/04/27 10:34:37;;;;;;;;;5.75;5.75;;;;;;;;5050554;28;8900;-76
2023/04/27 10:37:09;;;;;;;;;5.00;3.00;;;;;;;;5051239;28;8857;-73
2023/04/27 10:39:38;;;;;;;;;5.00;5.00;;;;;;;;5043190;28;8941;-76
2023/04/27 10:42:06;;;;;;;;;5.50;5.50;;;;;;;;5047352;28;8859;-74
2023/04/27 10:44:35;;;;;;;;;5.00;5.00;;;;;;;;5049972;28;8868;-73
2023/04/27 10:47:13;;;;;;;;;6.00;6.00;;;;;;;;5049816;28;8863;-75
2023/04/27 10:49:41;;;;;;;;;6.25;5.50;;;;;;;;5049740;28;8853;-75
2023/04/27 10:52:08;;;;;;;;;5.00;5.00;;;;;;;;5049088;28;8846;-74
2023/04/27 10:54:36;;;;;;;;;6.80;5.20;;;;;;;;5049572;28;8862;-74
2023/04/27 10:57:05;;;;;;;;;6.60;6.60;;;;;;;;5048257;28;8858;-73
2023/04/27 10:59:33;;;;;;;;;5.00;4.00;;;;;;;;5050500;28;8992;-73
2023/04/27 11:02:00;;;;;;;;;4.20;4.20;;;;;;;;5052780;28;8827;-77
2023/04/27 11:04:40;;;;;;;;;4.00;4.00;;;;;;;;5054747;28;8909;-72
2023/04/27 11:07:08;;;;;;;;;5.20;5.00;;;;;;;;5050848;28;9004;-74
2023/04/27 11:09:37;;;;;;;;;4.20;4.00;;;;;;;;5066573;28;8847;-77
2023/04/27 11:12:06;;;;;;;;;4.40;4.40;;;;;;;;5067160;28;8831;-75
2023/04/27 11:14:35;;;;;;;;;6.00;6.00;;;;;;;;5066507;28;8878;-76
2023/04/27 11:17:04;;;;;;;;;3.40;3.40;;;;;;;;5067021;28;8947;-75
2023/04/27 11:19:31;;;;;;;;;6.00;4.40;;;;;;;;5066733;28;8849;-81
2023/04/27 11:22:06;;;;;;;;;4.00;4.00;;;;;;;;5059331;28;8960;-76
2023/04/27 11:24:33;;;;;;;;;5.00;5.00;;;;;;;;5051495;28;8863;-77
2023/04/27 11:27:01;;;;;;;;;5.20;4.60;;;;;;;;5057621;28;8877;-78
2023/04/27 11:29:38;;;;;;;;;4.40;4.40;;;;;;;;5049751;28;8857;-80
2023/04/27 11:32:06;;;;;;;;;3.40;3.40;;;;;;;;5056379;28;8876;-75
2023/04/27 11:34:37;;;;;;;;;5.60;4.60;;;;;;;;5041638;28;8869;-77
2023/04/27 11:37:07;;;;;;;;;2.80;2.80;;;;;;;;5054070;28;8870;-73
2023/04/27 11:39:36;;;;;;;;;5.40;4.80;;;;;;;;5064288;28;8875;-75
2023/04/27 11:42:18;;;;;;;;;3.80;3.80;;;;;;;;5050583;28;8875;-75
2023/04/27 11:44:54;;;;;;;;;4.40;4.40;;;;;;;;5043306;28;8842;-76
2023/04/27 11:47:21;;;;;;;;;4.60;4.60;;;;;;;;5059465;28;8834;-75
2023/04/27 11:49:52;;;;;;;;;5.60;4.20;;;;;;;;5057609;28;8855;-76
2023/04/27 11:52:20;;;;;;;;;3.40;3.40;;;;;;;;5049061;28;8915;-76
2023/04/27 11:54:49;;;;;;;;;3.00;3.00;;;;;;;;5048822;28;8880;-75
2023/04/27 11:57:16;;;;;;;;;4.40;4.00;;;;;;;;5060702;28;9564;-74
2023/04/27 11:59:44;;;;;;;;;4.80;4.80;;;;;;;;5048517;28;8899;-76
2023/04/27 12:02:11;;;;;;;;;4.60;4.60;;;;;;;;5042909;28;8827;-76
2023/04/27 12:04:38;;;;;;;;;3.80;3.80;;;;;;;;5048774;28;8858;-77
2023/04/27 12:07:05;;;;;;;;;4.40;4.40;;;;;;;;5054489;28;8946;-79
2023/04/27 12:09:34;;;;;;;;;5.00;5.00;;;;;;;;5065627;28;8877;-76
2023/04/27 12:12:01;;;;;;;;;5.00;5.00;;;;;;;;5059030;28;9643;-78
2023/04/27 12:14:28;;;;;;;;;0.80;0.80;;;;;;;;5058951;28;9644;-78
2023/04/27 12:16:56;;;;;;;;;4.00;4.00;;;;;;;;5054687;28;8895;-73
2023/04/27 12:19:24;;;;;;;;;4.20;4.20;;;;;;;;5061182;28;8859;-74
2023/04/27 12:21:51;;;;;;;;;4.80;4.00;;;;;;;;5047142;28;8915;-75
2023/04/27 12:24:19;;;;;;;;;3.20;3.20;;;;;;;;5049661;28;8835;-76
2023/04/27 12:26:48;;;;;;;;;2.80;2.80;;;;;;;;5049220;28;8865;-77
2023/04/27 12:29:15;;;;;;;;;3.00;3.00;;;;;;;;5049976;28;8955;-77
2023/04/27 12:31:42;;;;;;;;;4.40;4.40;;;;;;;;5047523;28;8816;-80
2023/04/27 12:34:10;;;;;;;;;4.60;4.60;;;;;;;;5047416;28;9476;-75
2023/04/27 12:36:37;;;;;;;;;7.00;7.00;;;;;;;;5048255;28;8849;-77
2023/04/27 12:39:14;;;;;;;;;3.80;3.80;;;;;;;;5049784;28;8862;-78
2023/04/27 12:41:42;;;;;;;;;6.40;5.00;;;;;;;;5049643;28;8850;-76
2023/04/27 12:44:11;;;;;;;;;5.40;5.40;;;;;;;;5048914;28;8892;-76
2023/04/27 12:46:38;;;;;;;;;4.00;2.60;;;;;;;;5049400;28;8951;-76
2023/04/27 12:49:06;;;;;;;;;3.80;3.80;;;;;;;;5046285;28;8939;-78
2023/04/27 12:51:33;;;;;;;;;3.60;3.60;;;;;;;;5063120;28;8928;-76
2023/04/27 12:54:00;;;;;;;;;6.60;5.80;;;;;;;;5043681;28;8862;-77
2023/04/27 12:56:28;;;;;;;;;2.00;2.00;;;;;;;;5047348;28;8838;-77
2023/04/27 12:58:55;;;;;;;;;3.40;3.40;;;;;;;;5047856;28;8861;-78
2023/04/27 13:01:26;;;;;;;;;2.80;2.80;;;;;;;;5063666;28;8806;-76
2023/04/27 13:03:54;;;;;;;;;7.00;5.20;;;;;;;;5057603;28;8857;-74
2023/04/27 13:06:22;;;;;;;;;3.80;3.80;;;;;;;;5047140;28;8877;-78
2023/04/27 13:08:49;;;;;;;;;5.00;5.00;;;;;;;;5057748;28;8962;-80
2023/04/27 13:11:17;;;;;;;;;3.40;3.40;;;;;;;;5058142;28;8878;-79
2023/04/27 13:13:44;;;;;;;;;5.00;5.00;;;;;;;;5053452;28;8927;-77
2023/04/27 13:16:12;;;;;;;;;4.00;4.00;;;;;;;;5058853;28;8892;-74
2023/04/27 13:18:46;;;;;;;;;6.40;6.00;;;;;;;;5057961;28;8865;-78
2023/04/27 13:21:13;;;;;;;;;3.60;3.60;;;;;;;;5046511;28;9644;-77
2023/04/27 13:23:40;;;;;;;;;4.40;4.40;;;;;;;;5057781;28;8910;-75
2023/04/27 13:26:07;;;;;;;;;5.00;3.80;;;;;;;;5058599;28;8900;-76
2023/04/27 13:28:35;;;;;;;;;4.00;4.00;;;;;;;;5064350;28;8850;-76
2023/04/27 13:31:02;;;;;;;;;2.60;2.60;;;;;;;;5059377;28;8806;-75
2023/04/27 13:33:30;;;;;;;;;3.80;3.80;;;;;;;;5064543;28;8855;-79
2023/04/27 13:36:01;;;;;;;;;4.20;3.00;;;;;;;;5058650;28;8853;-77
2023/04/27 13:38:28;;;;;;;;;4.00;4.00;;;;;;;;5057414;28;8974;-77
2023/04/27 13:40:55;;;;;;;;;4.00;4.00;;;;;;;;5058960;28;8865;-78
2023/04/27 13:43:22;;;;;;;;;4.40;4.40;;;;;;;;5064333;28;8952;-75
2023/04/27 13:45:51;;;;;;;;;3.00;3.00;;;;;;;;5054561;28;8930;-77
2023/04/27 13:48:18;;;;;;;;;3.40;3.40;;;;;;;;5063006;28;8826;-79
2023/04/27 13:50:45;;;;;;;;;2.00;2.00;;;;;;;;5050553;28;8935;-81
2023/04/27 13:53:17;;;;;;;;;2.00;2.00;;;;;;;;5049735;28;8865;-77
2023/04/27 13:55:45;;;;;;;;;2.00;2.00;;;;;;;;5038900;28;8853;-76
2023/04/27 13:58:12;;;;;;;;;1.60;1.60;;;;;;;;5049608;28;8855;-77
2023/04/27 14:00:40;;;;;;;;;2.00;2.00;;;;;;;;5049950;28;8782;-73
2023/04/27 14:03:07;;;;;;;;;3.20;3.20;;;;;;;;5049746;28;8853;-77
2023/04/27 14:05:35;;;;;;;;;4.00;4.00;;;;;;;;5051049;28;9027;-75
2023/04/27 14:08:02;;;;;;;;;4.00;4.00;;;;;;;;5050433;28;8952;-75
2023/04/27 14:10:30;;;;;;;;;3.00;3.00;;;;;;;;5049937;28;8853;-78
2023/04/27 14:12:58;;;;;;;;;4.20;4.20;;;;;;;;5036109;28;8887;-73
2023/04/27 14:15:25;;;;;;;;;3.80;3.80;;;;;;;;5049800;28;8875;-78
2023/04/27 14:17:53;;;;;;;;;3.00;2.80;;;;;;;;5049661;28;8872;-76
2023/04/27 14:20:20;;;;;;;;;4.80;3.20;;;;;;;;5049305;28;8861;-82
2023/04/27 14:22:48;;;;;;;;;3.80;3.80;;;;;;;;5049534;28;8873;-80
2023/04/27 14:25:16;;;;;;;;;3.40;3.40;;;;;;;;5050217;28;8845;-78
2023/04/27 14:27:44;;;;;;;;;6.60;4.40;;;;;;;;5049654;28;9711;-77
2023/04/27 14:30:12;;;;;;;;;6.20;5.00;;;;;;;;5050325;28;8861;-79
2023/04/27 14:32:40;;;;;;;;;3.80;3.80;;;;;;;;5050706;28;8901;-82
2023/04/27 14:35:08;;;;;;;;;3.80;3.80;;;;;;;;5049228;28;9623;-82
2023/04/27 14:37:35;;;;;;;;;4.00;4.00;;;;;;;;5050640;28;8954;-82
2023/04/27 14:40:03;;;;;;;;;4.40;4.00;;;;;;;;5050214;28;8858;-80
2023/04/27 14:42:31;;;;;;;;;4.80;4.80;;;;;;;;5050412;28;8843;-78
2023/04/27 14:45:00;;;;;;;;;5.40;4.00;;;;;;;;5049765;28;8857;-74